KROX

Roseau Municipal / Rudy Billberg Field Airport

Roseau, Minnesota, USA
METAR KROX 221825Z AUTO 28006KT 2SM -SN OVC022 M11/M13 A3005 RMK AO2
Observed Flight Rules
Jan-22 @ 18:25 UTC (31 minutes ago) Instrument Flight Rules
Wind Visibility Clouds Conditions
280° at 6 knots 2 miles
  • Overcast at 2,200' AGL
  • Light Snow
Temperatures Readings
Current -11°C / 12°F
Dewpoint -13°C / 9°F
Humidity 85%
Altimeter 30.05" Hg
Pressure 1017.62 hPa
Elevation 323
METAR KROX 221825Z AUTO 28006KT 2SM -SN OVC022 M11/M13 A3005 RMK AO2
Observed Flight Rules
Jan-22 @ 18:25 UTC
(31 minutes ago)
IFR
Wind Visibility
280° at 6 knots 2 miles
Clouds
  • Overcast at 2,200' AGL
Conditions
  • Light Snow
Temperature Dewpoint
-11°C / 12°F -13°C / 9°F
Humidity Altimeter Pressure
85% 30.05" Hg 1017.62 hPa